Time;durP1;ratioP1;P1;durP2;ratioP2;P2;SDS_P1;SDS_P2;PMS_P1;PMS_P2;Temp;Humidity;BMP_temperature;BMP_pressure;BME280_temperature;BME280_humidity;BME280_pressure;Samples;Min_cycle;Max_cycle;Signal;HPM_P1;HPM_P2
2023/01/21 00:01:48;;;;;;;;;;;;;;;;;;5015091;28;20012;-69
2023/01/21 00:04:14;;;;;;;;;;;;;;;;;;5003857;28;19917;-69
2023/01/21 00:06:40;;;;;;;;;;;;;;;;;;5003244;28;20154;-69
2023/01/21 00:09:05;;;;;;;;;;;;;;;;;;4999025;28;19928;-69
2023/01/21 00:11:31;;;;;;;;;;;;;;;;;;4989877;28;19933;-69
2023/01/21 00:13:57;;;;;;;;;;;;;;;;;;4970938;28;20051;-69
2023/01/21 00:16:23;;;;;;;;;;;;;;;;;;5005717;28;20397;-68
2023/01/21 00:18:49;;;;;;;;;;;;;;;;;;5021908;28;19920;-69
2023/01/21 00:21:15;;;;;;;;;;;;;;;;;;5008221;28;21395;-69
2023/01/21 00:23:41;;;;;;;;;;;;;;;;;;5005465;28;20399;-68
2023/01/21 00:26:07;;;;;;;;;;;;;;;;;;5019360;28;20317;-68
2023/01/21 00:28:32;;;;;;;;;;;;;;;;;;5013720;28;19929;-69
2023/01/21 00:30:58;;;;;;;;;;;;;;;;;;5006196;28;20417;-69
2023/01/21 00:33:24;;;;;;;;;;;;;;;;;;4979220;28;19925;-69
2023/01/21 00:35:50;;;;;;;;;;;;;;;;;;5010010;28;20032;-69
2023/01/21 00:38:16;;;;;;;;;;;;;;;;;;5003810;28;19932;-68
2023/01/21 00:40:42;;;;;;;;;;;;;;;;;;5011622;28;19925;-68
2023/01/21 00:43:07;;;;;;;;;;;;;;;;;;4980452;28;19928;-68
2023/01/21 00:45:33;;;;;;;;;;;;;;;;;;5000520;28;20078;-69
2023/01/21 00:47:59;;;;;;;;;;;;;;;;;;5011743;28;19947;-68
2023/01/21 00:50:25;;;;;;;;;;;;;;;;;;5013062;28;19921;-68
2023/01/21 00:52:51;;;;;;;;;;;;;;;;;;5031147;28;20243;-69
2023/01/21 00:55:17;;;;;;;;;;;;;;;;;;5006558;28;19930;-68
2023/01/21 00:57:43;;;;;;;;;;;;;;;;;;4990923;28;20388;-68
2023/01/21 01:00:10;;;;;;;;;;;;;;;;;;4993344;28;19926;-69
2023/01/21 01:02:36;;;;;;;;;;;;;;;;;;4990390;28;20389;-68
2023/01/21 01:05:02;;;;;;;;;;;;;;;;;;4998358;28;19946;-68
2023/01/21 01:07:28;;;;;;;;;;;;;;;;;;4982630;28;20042;-68
2023/01/21 01:09:54;;;;;;;;;;;;;;;;;;4999160;28;19920;-69
2023/01/21 01:12:19;;;;;;;;;;;;;;;;;;4998476;28;19932;-69
2023/01/21 01:14:45;;;;;;;;;;;;;;;;;;4994662;28;20063;-68
2023/01/21 01:17:11;;;;;;;;;;;;;;;;;;4992915;28;19922;-69
2023/01/21 01:19:37;;;;;;;;;;;;;;;;;;5017883;28;19959;-68
2023/01/21 01:22:03;;;;;;;;;;;;;;;;;;5000268;28;20148;-69
2023/01/21 01:24:29;;;;;;;;;;;;;;;;;;5009818;28;19924;-69
2023/01/21 01:26:54;;;;;;;;;;;;;;;;;;5019822;28;21551;-69
2023/01/21 01:29:20;;;;;;;;;;;;;;;;;;5012576;28;19921;-69
2023/01/21 01:31:46;;;;;;;;;;;;;;;;;;5011109;28;19923;-68
2023/01/21 01:34:12;;;;;;;;;;;;;;;;;;5006697;28;20081;-68
2023/01/21 01:36:40;;;;;;;;;;;;;;;;;;5024237;28;21345;-69
2023/01/21 01:39:06;;;;;;;;;;;;;;;;;;5025677;28;20290;-68
2023/01/21 01:41:33;;;;;;;;;;;;;;;;;;5022067;28;20093;-69
2023/01/21 01:43:59;;;;;;;;;;;;;;;;;;5000870;28;20480;-68
2023/01/21 01:46:25;;;;;;;;;;;;;;;;;;5020816;28;19973;-68
2023/01/21 01:48:51;;;;;;;;;;;;;;;;;;4992369;28;20531;-68
2023/01/21 01:51:17;;;;;;;;;;;;;;;;;;4986695;28;19921;-68
2023/01/21 01:53:43;;;;;;;;;;;;;;;;;;4993878;28;19936;-68
2023/01/21 01:56:09;;;;;;;;;;;;;;;;;;4997574;28;20469;-68
2023/01/21 01:58:35;;;;;;;;;;;;;;;;;;5009071;28;20360;-68
2023/01/21 02:01:01;;;;;;;;;;;;;;;;;;4993602;28;19925;-68
2023/01/21 02:03:45;;;;;;;;;;;;;;;;;;4973176;28;20021;-68
2023/01/21 02:06:11;;;;;;;;;;;;;;;;;;4982644;28;20623;-68
2023/01/21 02:08:37;;;;;;;;;;;;;;;;;;5005076;28;19924;-68
2023/01/21 02:11:03;;;;;;;;;;;;;;;;;;4998386;28;19927;-68
2023/01/21 02:13:28;;;;;;;;;;;;;;;;;;5021535;28;19928;-68
2023/01/21 02:15:54;;;;;;;;;;;;;;;;;;5016867;28;19924;-68
2023/01/21 02:18:20;;;;;;;;;;;;;;;;;;4974342;28;19918;-68
2023/01/21 02:20:46;;;;;;;;;;;;;;;;;;4952380;28;20005;-68
2023/01/21 02:23:12;;;;;;;;;;;;;;;;;;4968437;28;19921;-68
2023/01/21 02:25:38;;;;;;;;;;;;;;;;;;4970689;28;20017;-68
2023/01/21 02:28:04;;;;;;;;;;;;;;;;;;4974523;28;19933;-68
2023/01/21 02:30:30;;;;;;;;;;;;;;;;;;4978975;28;19989;-68
2023/01/21 02:32:55;;;;;;;;;;;;;;;;;;4972978;28;20201;-68
2023/01/21 02:35:21;;;;;;;;;;;;;;;;;;4960876;28;19929;-68
2023/01/21 02:37:47;;;;;;;;;;;;;;;;;;4977663;28;20556;-68
2023/01/21 02:40:13;;;;;;;;;;;;;;;;;;4978468;28;20007;-68
2023/01/21 02:42:39;;;;;;;;;;;;;;;;;;4980366;28;20079;-68
2023/01/21 02:45:05;;;;;;;;;;;;;;;;;;4980159;28;20386;-68
2023/01/21 02:47:31;;;;;;;;;;;;;;;;;;4996967;28;19925;-68
2023/01/21 02:49:57;;;;;;;;;;;;;;;;;;4970901;28;19980;-68
2023/01/21 02:52:22;;;;;;;;;;;;;;;;;;4962716;28;20000;-68
2023/01/21 02:54:49;;;;;;;;;;;;;;;;;;4964971;28;19936;-67
2023/01/21 02:57:15;;;;;;;;;;;;;;;;;;4981595;28;20053;-68
2023/01/21 02:59:41;;;;;;;;;;;;;;;;;;4992884;28;19920;-68
2023/01/21 03:02:06;;;;;;;;;;;;;;;;;;4974536;28;19925;-67
2023/01/21 03:04:32;;;;;;;;;;;;;;;;;;4958531;28;20496;-68
2023/01/21 03:06:58;;;;;;;;;;;;;;;;;;4978941;28;20007;-68
2023/01/21 03:09:24;;;;;;;;;;;;;;;;;;4961917;28;20238;-68
2023/01/21 03:11:50;;;;;;;;;;;;;;;;;;4962076;28;19980;-67
2023/01/21 03:17:00;;;;;;;;;;;;;;;;;;4998856;28;20782;-68
2023/01/21 03:19:26;;;;;;;;;;;;;;;;;;5008870;28;19921;-67
2023/01/21 03:21:52;;;;;;;;;;;;;;;;;;4977779;28;19927;-67
2023/01/21 03:24:18;;;;;;;;;;;;;;;;;;4960125;28;19917;-68
2023/01/21 03:26:44;;;;;;;;;;;;;;;;;;4987964;28;20412;-68
2023/01/21 03:29:10;;;;;;;;;;;;;;;;;;4983025;28;20079;-68
2023/01/21 03:31:36;;;;;;;;;;;;;;;;;;4958600;28;19930;-68
2023/01/21 03:34:01;;;;;;;;;;;;;;;;;;4992594;28;19933;-67
2023/01/21 03:36:27;;;;;;;;;;;;;;;;;;4981445;28;19929;-67
2023/01/21 03:38:53;;;;;;;;;;;;;;;;;;4949173;28;19971;-68
2023/01/21 03:41:19;;;;;;;;;;;;;;;;;;4977144;28;19924;-68
2023/01/21 03:43:45;;;;;;;;;;;;;;;;;;4972309;28;20363;-68
2023/01/21 03:46:11;;;;;;;;;;;;;;;;;;4982306;28;20023;-67
2023/01/21 03:48:37;;;;;;;;;;;;;;;;;;4957125;28;19977;-67
2023/01/21 03:51:02;;;;;;;;;;;;;;;;;;4973490;28;20232;-68
2023/01/21 03:53:28;;;;;;;;;;;;;;;;;;4968338;28;20008;-67
2023/01/21 03:55:54;;;;;;;;;;;;;;;;;;4969788;28;19961;-67
2023/01/21 03:58:20;;;;;;;;;;;;;;;;;;4972308;28;21838;-68
2023/01/21 04:00:48;;;;;;;;;;;;;;;;;;4976365;28;19968;-68
2023/01/21 04:03:13;;;;;;;;;;;;;;;;;;4966249;28;19922;-68
2023/01/21 04:05:39;;;;;;;;;;;;;;;;;;4977265;28;20287;-68
2023/01/21 04:08:05;;;;;;;;;;;;;;;;;;4972247;28;19921;-67
2023/01/21 04:10:31;;;;;;;;;;;;;;;;;;4954955;28;19919;-68
2023/01/21 04:12:57;;;;;;;;;;;;;;;;;;4971413;28;20493;-68
2023/01/21 04:15:23;;;;;;;;;;;;;;;;;;4987117;28;20295;-68
2023/01/21 04:17:49;;;;;;;;;;;;;;;;;;4988796;28;20218;-67
2023/01/21 04:20:14;;;;;;;;;;;;;;;;;;5009252;28;19916;-67
2023/01/21 04:22:40;;;;;;;;;;;;;;;;;;5001930;28;20301;-67
2023/01/21 04:25:06;;;;;;;;;;;;;;;;;;5015661;28;19927;-67
2023/01/21 04:27:32;;;;;;;;;;;;;;;;;;5016074;28;19974;-67
2023/01/21 04:29:58;;;;;;;;;;;;;;;;;;5031458;28;20408;-68
2023/01/21 04:32:24;;;;;;;;;;;;;;;;;;5008685;28;19963;-67
2023/01/21 04:34:50;;;;;;;;;;;;;;;;;;5013716;28;20586;-67
2023/01/21 04:37:15;;;;;;;;;;;;;;;;;;5010951;28;20219;-67
2023/01/21 04:39:41;;;;;;;;;;;;;;;;;;5018960;28;19929;-67
2023/01/21 04:42:07;;;;;;;;;;;;;;;;;;5032364;28;19928;-68
2023/01/21 04:44:33;;;;;;;;;;;;;;;;;;5007974;28;19925;-67
2023/01/21 04:46:59;;;;;;;;;;;;;;;;;;5013993;28;20457;-67
2023/01/21 04:49:25;;;;;;;;;;;;;;;;;;5035103;28;20019;-67
2023/01/21 04:51:51;;;;;;;;;;;;;;;;;;5019908;28;19929;-67
2023/01/21 04:54:16;;;;;;;;;;;;;;;;;;5025937;28;20479;-67
2023/01/21 04:56:42;;;;;;;;;;;;;;;;;;5019786;28;20044;-67
2023/01/21 04:59:08;;;;;;;;;;;;;;;;;;5008280;28;19926;-67
2023/01/21 05:01:34;;;;;;;;;;;;;;;;;;5019288;28;19916;-68
2023/01/21 05:04:00;;;;;;;;;;;;;;;;;;5003134;28;19961;-67
2023/01/21 05:06:26;;;;;;;;;;;;;;;;;;5005710;28;20244;-67
2023/01/21 05:08:51;;;;;;;;;;;;;;;;;;5016170;28;19920;-67
2023/01/21 05:11:17;;;;;;;;;;;;;;;;;;5005362;28;19929;-67
2023/01/21 05:13:43;;;;;;;;;;;;;;;;;;5008959;28;20436;-68
2023/01/21 05:16:09;;;;;;;;;;;;;;;;;;4993018;28;19925;-67
2023/01/21 05:18:35;;;;;;;;;;;;;;;;;;5010151;28;20062;-67
2023/01/21 05:21:01;;;;;;;;;;;;;;;;;;5019509;28;20436;-68
2023/01/21 05:23:27;;;;;;;;;;;;;;;;;;4992311;28;19963;-67
2023/01/21 05:25:52;;;;;;;;;;;;;;;;;;4998689;28;19932;-67
2023/01/21 05:28:18;;;;;;;;;;;;;;;;;;5009532;28;20514;-68
2023/01/21 05:30:44;;;;;;;;;;;;;;;;;;4988684;28;20387;-67
2023/01/21 05:33:10;;;;;;;;;;;;;;;;;;4982824;28;19931;-67
2023/01/21 05:35:36;;;;;;;;;;;;;;;;;;4978866;28;19977;-68
2023/01/21 05:38:02;;;;;;;;;;;;;;;;;;4966091;28;19925;-68
2023/01/21 05:40:28;;;;;;;;;;;;;;;;;;4972589;28;19918;-67
2023/01/21 05:42:54;;;;;;;;;;;;;;;;;;4974846;28;19909;-67
2023/01/21 05:45:19;;;;;;;;;;;;;;;;;;4984504;28;19932;-67
2023/01/21 05:47:45;;;;;;;;;;;;;;;;;;4975318;28;19932;-68
2023/01/21 05:50:11;;;;;;;;;;;;;;;;;;4998961;28;19926;-67
2023/01/21 05:52:37;;;;;;;;;;;;;;;;;;4997087;28;20270;-67
2023/01/21 05:55:03;;;;;;;;;;;;;;;;;;4967772;28;19964;-67
2023/01/21 05:57:29;;;;;;;;;;;;;;;;;;4949678;28;19948;-67
2023/01/21 05:59:55;;;;;;;;;;;;;;;;;;4966194;28;20004;-67
2023/01/21 06:02:21;;;;;;;;;;;;;;;;;;4936187;28;19922;-68
2023/01/21 06:04:46;;;;;;;;;;;;;;;;;;4965641;28;19940;-67
2023/01/21 06:07:12;;;;;;;;;;;;;;;;;;4989048;28;19921;-67
2023/01/21 06:09:38;;;;;;;;;;;;;;;;;;4980678;28;20606;-68
2023/01/21 06:12:04;;;;;;;;;;;;;;;;;;4966590;28;20298;-67
2023/01/21 06:14:30;;;;;;;;;;;;;;;;;;4979045;28;19922;-67
2023/01/21 06:16:56;;;;;;;;;;;;;;;;;;4971154;28;19979;-67
2023/01/21 06:19:22;;;;;;;;;;;;;;;;;;4998276;28;19979;-67
2023/01/21 06:21:47;;;;;;;;;;;;;;;;;;4977188;28;19926;-67
2023/01/21 06:24:13;;;;;;;;;;;;;;;;;;4955476;28;19925;-67
2023/01/21 06:26:39;;;;;;;;;;;;;;;;;;4996262;28;20031;-67
2023/01/21 06:29:05;;;;;;;;;;;;;;;;;;5015855;28;20391;-67
2023/01/21 06:31:31;;;;;;;;;;;;;;;;;;5009560;28;19926;-68
2023/01/21 06:33:57;;;;;;;;;;;;;;;;;;5004617;28;20373;-67
2023/01/21 06:36:23;;;;;;;;;;;;;;;;;;5020299;28;20368;-67
2023/01/21 06:38:49;;;;;;;;;;;;;;;;;;5030573;28;19956;-67
2023/01/21 06:41:14;;;;;;;;;;;;;;;;;;5014004;28;19925;-67
2023/01/21 06:43:40;;;;;;;;;;;;;;;;;;5022853;28;20373;-67
2023/01/21 06:46:06;;;;;;;;;;;;;;;;;;5026011;28;19988;-67
2023/01/21 06:48:32;;;;;;;;;;;;;;;;;;5034074;28;19963;-67
2023/01/21 06:50:58;;;;;;;;;;;;;;;;;;5010010;28;19999;-67
2023/01/21 06:53:24;;;;;;;;;;;;;;;;;;5034907;28;20308;-67
2023/01/21 06:55:50;;;;;;;;;;;;;;;;;;5009069;28;19937;-67
2023/01/21 06:58:16;;;;;;;;;;;;;;;;;;4969499;28;19927;-67
2023/01/21 07:00:42;;;;;;;;;;;;;;;;;;4989275;28;20436;-67
2023/01/21 07:03:08;;;;;;;;;;;;;;;;;;4980839;28;19963;-67
2023/01/21 07:05:33;;;;;;;;;;;;;;;;;;4964257;28;19964;-67
2023/01/21 07:07:59;;;;;;;;;;;;;;;;;;4959958;28;19925;-67
2023/01/21 07:10:25;;;;;;;;;;;;;;;;;;4982369;28;25563;-67
2023/01/21 07:12:51;;;;;;;;;;;;;;;;;;4997105;28;19932;-67
2023/01/21 07:15:17;;;;;;;;;;;;;;;;;;4963335;28;20226;-67
2023/01/21 07:17:43;;;;;;;;;;;;;;;;;;4970788;28;21043;-67
2023/01/21 07:20:11;;;;;;;;;;;;;;;;;;4976712;28;19925;-67
2023/01/21 07:22:36;;;;;;;;;;;;;;;;;;4973964;28;20011;-67
2023/01/21 07:25:02;;;;;;;;;;;;;;;;;;5000900;28;19918;-67
2023/01/21 07:27:28;;;;;;;;;;;;;;;;;;4969565;28;19953;-67
2023/01/21 07:29:54;;;;;;;;;;;;;;;;;;5015133;28;19990;-67
2023/01/21 07:32:20;;;;;;;;;;;;;;;;;;4979961;28;20273;-67
2023/01/21 07:34:46;;;;;;;;;;;;;;;;;;4975138;28;19929;-67
2023/01/21 07:37:12;;;;;;;;;;;;;;;;;;4984816;28;20253;-67
2023/01/21 07:39:37;;;;;;;;;;;;;;;;;;4974942;28;20031;-67
2023/01/21 07:42:03;;;;;;;;;;;;;;;;;;4997729;28;20396;-67
2023/01/21 07:44:29;;;;;;;;;;;;;;;;;;4967995;28;19914;-68
2023/01/21 07:46:55;;;;;;;;;;;;;;;;;;4978621;28;19955;-67
2023/01/21 07:49:21;;;;;;;;;;;;;;;;;;4997007;28;19921;-67
2023/01/21 07:51:47;;;;;;;;;;;;;;;;;;4968947;28;20614;-67
2023/01/21 07:54:13;;;;;;;;;;;;;;;;;;4970767;28;19914;-67
2023/01/21 07:56:39;;;;;;;;;;;;;;;;;;4934735;28;19985;-67
2023/01/21 07:59:05;;;;;;;;;;;;;;;;;;4974495;28;19933;-67
2023/01/21 08:01:31;;;;;;;;;;;;;;;;;;4985524;28;20539;-67
2023/01/21 08:03:57;;;;;;;;;;;;;;;;;;4978032;28;19926;-67
2023/01/21 08:06:22;;;;;;;;;;;;;;;;;;4968852;28;19925;-67
2023/01/21 08:08:48;;;;;;;;;;;;;;;;;;4984404;28;19937;-67
2023/01/21 08:11:14;;;;;;;;;;;;;;;;;;4983362;28;19991;-67
2023/01/21 08:13:40;;;;;;;;;;;;;;;;;;4967181;28;20289;-67
2023/01/21 08:16:06;;;;;;;;;;;;;;;;;;4995609;28;19930;-67
2023/01/21 08:18:32;;;;;;;;;;;;;;;;;;4989759;28;19916;-67
2023/01/21 08:20:58;;;;;;;;;;;;;;;;;;4979413;28;20478;-68
2023/01/21 08:23:24;;;;;;;;;;;;;;;;;;4954002;28;19923;-67
2023/01/21 08:25:49;;;;;;;;;;;;;;;;;;4984958;28;19918;-67
2023/01/21 08:28:15;;;;;;;;;;;;;;;;;;4993222;28;19925;-68
2023/01/21 08:30:41;;;;;;;;;;;;;;;;;;4985346;28;20050;-68
2023/01/21 08:33:07;;;;;;;;;;;;;;;;;;4964549;28;19934;-68
2023/01/21 08:35:33;;;;;;;;;;;;;;;;;;5014727;28;19991;-68
2023/01/21 08:37:59;;;;;;;;;;;;;;;;;;5000576;28;20397;-68
2023/01/21 08:40:26;;;;;;;;;;;;;;;;;;4997671;28;19922;-69
2023/01/21 08:42:52;;;;;;;;;;;;;;;;;;4962197;28;21279;-69
2023/01/21 08:45:18;;;;;;;;;;;;;;;;;;4935964;28;20389;-67
2023/01/21 08:47:43;;;;;;;;;;;;;;;;;;4954633;28;20196;-68
2023/01/21 08:50:09;;;;;;;;;;;;;;;;;;4985734;28;19922;-68
2023/01/21 08:52:35;;;;;;;;;;;;;;;;;;4984948;28;20309;-68
2023/01/21 08:55:01;;;;;;;;;;;;;;;;;;4988135;28;19978;-68
2023/01/21 08:57:27;;;;;;;;;;;;;;;;;;4989262;28;19927;-67
2023/01/21 08:59:53;;;;;;;;;;;;;;;;;;5010049;28;20464;-67
2023/01/21 09:02:18;;;;;;;;;;;;;;;;;;5010653;28;19956;-67
2023/01/21 09:04:44;;;;;;;;;;;;;;;;;;4998810;28;19956;-68
2023/01/21 09:07:10;;;;;;;;;;;;;;;;;;4972526;28;20482;-67
2023/01/21 09:09:36;;;;;;;;;;;;;;;;;;4991267;28;19926;-67
2023/01/21 09:12:02;;;;;;;;;;;;;;;;;;4964611;28;19917;-69
2023/01/21 09:14:28;;;;;;;;;;;;;;;;;;4980903;28;19927;-69
2023/01/21 09:16:54;;;;;;;;;;;;;;;;;;4971196;28;19930;-68
2023/01/21 09:19:21;;;;;;;;;;;;;;;;;;4969247;28;23323;-69
2023/01/21 09:21:47;;;;;;;;;;;;;;;;;;4960655;28;19969;-69
2023/01/21 09:24:13;;;;;;;;;;;;;;;;;;4962093;28;19917;-69
2023/01/21 09:26:40;;;;;;;;;;;;;;;;;;4977464;28;20352;-69
2023/01/21 09:29:06;;;;;;;;;;;;;;;;;;4970775;28;20387;-69
2023/01/21 09:31:32;;;;;;;;;;;;;;;;;;4966403;28;19928;-70
2023/01/21 09:33:57;;;;;;;;;;;;;;;;;;4945931;28;20430;-70
2023/01/21 09:36:23;;;;;;;;;;;;;;;;;;4957022;28;20479;-70
2023/01/21 09:38:49;;;;;;;;;;;;;;;;;;4949919;28;20408;-70
2023/01/21 09:41:15;;;;;;;;;;;;;;;;;;4954290;28;19925;-70
2023/01/21 09:43:41;;;;;;;;;;;;;;;;;;4963172;28;20549;-69
2023/01/21 09:46:07;;;;;;;;;;;;;;;;;;4954690;28;19926;-70
2023/01/21 09:48:33;;;;;;;;;;;;;;;;;;4951449;28;19976;-70
2023/01/21 09:50:58;;;;;;;;;;;;;;;;;;4942560;28;20508;-70
2023/01/21 09:53:24;;;;;;;;;;;;;;;;;;4979695;28;19937;-70
2023/01/21 09:55:51;;;;;;;;;;;;;;;;;;4952809;28;20397;-70
2023/01/21 09:58:17;;;;;;;;;;;;;;;;;;4955599;28;19964;-69
2023/01/21 10:00:43;;;;;;;;;;;;;;;;;;4956206;28;20518;-66
2023/01/21 10:03:09;;;;;;;;;;;;;;;;;;4949547;28;19978;-69
2023/01/21 10:05:35;;;;;;;;;;;;;;;;;;4949655;28;19932;-69
2023/01/21 10:08:01;;;;;;;;;;;;;;;;;;4960841;28;19929;-68
2023/01/21 10:10:27;;;;;;;;;;;;;;;;;;4962359;28;20339;-69
2023/01/21 10:12:52;;;;;;;;;;;;;;;;;;4977540;28;19948;-69
2023/01/21 10:15:18;;;;;;;;;;;;;;;;;;4939302;28;19922;-68
2023/01/21 10:17:46;;;;;;;;;;;;;;;;;;4949052;28;22369;-68
2023/01/21 10:20:12;;;;;;;;;;;;;;;;;;4978736;28;19952;-68
2023/01/21 10:22:38;;;;;;;;;;;;;;;;;;4942332;28;19940;-69
2023/01/21 10:25:03;;;;;;;;;;;;;;;;;;4945017;28;19898;-66
2023/01/21 10:27:29;;;;;;;;;;;;;;;;;;4966614;28;19925;-69
2023/01/21 10:29:55;;;;;;;;;;;;;;;;;;4987635;28;20404;-69
2023/01/21 10:32:21;;;;;;;;;;;;;;;;;;4967435;28;19969;-69
2023/01/21 10:34:47;;;;;;;;;;;;;;;;;;4981824;28;19980;-69
2023/01/21 10:37:13;;;;;;;;;;;;;;;;;;5010595;28;20016;-68
2023/01/21 10:39:39;;;;;;;;;;;;;;;;;;4978033;28;20377;-68
2023/01/21 10:42:05;;;;;;;;;;;;;;;;;;4981383;28;19922;-68
2023/01/21 10:44:30;;;;;;;;;;;;;;;;;;4991645;28;19992;-68
2023/01/21 10:46:56;;;;;;;;;;;;;;;;;;4976079;28;20129;-68
2023/01/21 10:49:22;;;;;;;;;;;;;;;;;;4963669;28;19922;-68
2023/01/21 10:51:48;;;;;;;;;;;;;;;;;;4960338;28;19922;-68
2023/01/21 10:54:14;;;;;;;;;;;;;;;;;;5005391;28;20017;-68
2023/01/21 10:56:40;;;;;;;;;;;;;;;;;;4997883;28;20156;-68
2023/01/21 10:59:06;;;;;;;;;;;;;;;;;;4997808;28;22809;-68
2023/01/21 11:01:31;;;;;;;;;;;;;;;;;;5010785;28;19952;-70
2023/01/21 11:03:57;;;;;;;;;;;;;;;;;;5000108;28;20404;-68
2023/01/21 11:06:23;;;;;;;;;;;;;;;;;;4986102;28;20611;-68
2023/01/21 11:08:49;;;;;;;;;;;;;;;;;;5005496;28;19926;-69
2023/01/21 11:11:15;;;;;;;;;;;;;;;;;;4990010;28;20298;-69
2023/01/21 11:13:41;;;;;;;;;;;;;;;;;;4975293;28;20024;-69
2023/01/21 11:16:07;;;;;;;;;;;;;;;;;;4983155;28;19929;-69
2023/01/21 11:18:33;;;;;;;;;;;;;;;;;;4994720;28;20018;-68
2023/01/21 11:20:59;;;;;;;;;;;;;;;;;;5015331;28;19925;-68
2023/01/21 11:23:25;;;;;;;;;;;;;;;;;;5008459;28;19925;-68
2023/01/21 11:25:51;;;;;;;;;;;;;;;;;;4987297;28;19932;-68
2023/01/21 11:28:17;;;;;;;;;;;;;;;;;;5000971;28;19920;-68
2023/01/21 11:30:43;;;;;;;;;;;;;;;;;;5002764;28;19925;-68
2023/01/21 11:33:09;;;;;;;;;;;;;;;;;;4974206;28;20025;-68
2023/01/21 11:35:35;;;;;;;;;;;;;;;;;;4983888;28;20431;-67
2023/01/21 11:38:01;;;;;;;;;;;;;;;;;;4980575;28;19969;-68
2023/01/21 11:40:27;;;;;;;;;;;;;;;;;;4994444;28;19948;-68
2023/01/21 11:42:53;;;;;;;;;;;;;;;;;;4991684;28;19929;-67
2023/01/21 11:45:19;;;;;;;;;;;;;;;;;;5000383;28;19917;-68
2023/01/21 11:47:45;;;;;;;;;;;;;;;;;;4979214;28;19926;-68
2023/01/21 11:50:11;;;;;;;;;;;;;;;;;;5014384;28;19967;-68
2023/01/21 11:52:36;;;;;;;;;;;;;;;;;;4986775;28;19931;-68
2023/01/21 11:55:03;;;;;;;;;;;;;;;;;;4998792;28;19926;-69
2023/01/21 11:57:28;;;;;;;;;;;;;;;;;;4983391;28;19936;-68
2023/01/21 11:59:54;;;;;;;;;;;;;;;;;;5001095;28;19926;-68
2023/01/21 12:02:20;;;;;;;;;;;;;;;;;;5002660;28;20006;-67
2023/01/21 12:04:46;;;;;;;;;;;;;;;;;;4999970;28;20011;-68
2023/01/21 12:07:12;;;;;;;;;;;;;;;;;;4969976;28;19938;-68
2023/01/21 12:09:38;;;;;;;;;;;;;;;;;;5004986;28;19929;-68
2023/01/21 12:12:04;;;;;;;;;;;;;;;;;;4979251;28;19924;-70
2023/01/21 12:14:30;;;;;;;;;;;;;;;;;;4978730;28;20367;-68
2023/01/21 12:16:56;;;;;;;;;;;;;;;;;;4988483;28;19930;-68
2023/01/21 12:19:22;;;;;;;;;;;;;;;;;;5000640;28;20226;-68
2023/01/21 12:21:48;;;;;;;;;;;;;;;;;;4995457;28;20598;-68
2023/01/21 12:24:14;;;;;;;;;;;;;;;;;;5002819;28;19925;-68
2023/01/21 12:26:40;;;;;;;;;;;;;;;;;;4991306;28;20455;-68
2023/01/21 12:29:06;;;;;;;;;;;;;;;;;;4985897;28;20008;-68
2023/01/21 12:31:32;;;;;;;;;;;;;;;;;;5001859;28;20390;-68
2023/01/21 12:33:58;;;;;;;;;;;;;;;;;;4993805;28;19972;-67
2023/01/21 12:36:24;;;;;;;;;;;;;;;;;;4991570;28;20451;-70
2023/01/21 12:38:49;;;;;;;;;;;;;;;;;;4981381;28;20428;-70
2023/01/21 12:41:15;;;;;;;;;;;;;;;;;;4992004;28;20071;-69
2023/01/21 12:43:41;;;;;;;;;;;;;;;;;;4978125;28;19925;-70
2023/01/21 12:46:09;;;;;;;;;;;;;;;;;;4989400;28;20211;-70
2023/01/21 12:48:35;;;;;;;;;;;;;;;;;;4992224;28;20434;-70
2023/01/21 12:51:01;;;;;;;;;;;;;;;;;;4982023;28;19921;-70
2023/01/21 12:53:27;;;;;;;;;;;;;;;;;;4972537;28;19927;-70
2023/01/21 12:55:53;;;;;;;;;;;;;;;;;;4993337;28;19929;-69
2023/01/21 12:58:19;;;;;;;;;;;;;;;;;;4995451;28;19979;-70
2023/01/21 13:00:45;;;;;;;;;;;;;;;;;;5001513;28;19929;-70
2023/01/21 13:03:11;;;;;;;;;;;;;;;;;;5007244;28;20348;-70
2023/01/21 13:05:37;;;;;;;;;;;;;;;;;;4996948;28;19931;-69
2023/01/21 13:08:03;;;;;;;;;;;;;;;;;;4963794;28;20020;-70
2023/01/21 13:10:28;;;;;;;;;;;;;;;;;;4908795;28;20967;-70
2023/01/21 13:12:54;;;;;;;;;;;;;;;;;;4964118;28;20717;-69
2023/01/21 13:15:20;;;;;;;;;;;;;;;;;;4958305;28;20359;-66
2023/01/21 13:17:46;;;;;;;;;;;;;;;;;;4985185;28;20299;-68
2023/01/21 13:20:12;;;;;;;;;;;;;;;;;;4969029;28;19921;-68
2023/01/21 13:22:38;;;;;;;;;;;;;;;;;;4999654;28;19933;-68
2023/01/21 13:25:03;;;;;;;;;;;;;;;;;;5027047;28;20008;-68
2023/01/21 13:27:29;;;;;;;;;;;;;;;;;;5002069;28;19929;-68
2023/01/21 13:29:55;;;;;;;;;;;;;;;;;;5005021;28;19924;-68
2023/01/21 13:32:21;;;;;;;;;;;;;;;;;;5017973;28;19928;-67
2023/01/21 13:34:47;;;;;;;;;;;;;;;;;;5013167;28;20416;-67
2023/01/21 13:37:13;;;;;;;;;;;;;;;;;;4997774;28;20280;-67
2023/01/21 13:39:39;;;;;;;;;;;;;;;;;;5016015;28;19931;-68
2023/01/21 13:42:04;;;;;;;;;;;;;;;;;;5000979;28;19933;-67
2023/01/21 13:44:30;;;;;;;;;;;;;;;;;;5006643;28;20473;-67
2023/01/21 13:46:56;;;;;;;;;;;;;;;;;;5016084;28;20018;-67
2023/01/21 13:49:22;;;;;;;;;;;;;;;;;;5013180;28;19918;-68
2023/01/21 13:51:48;;;;;;;;;;;;;;;;;;5010287;28;19925;-67
2023/01/21 13:54:14;;;;;;;;;;;;;;;;;;5004646;28;21560;-67
2023/01/21 13:56:40;;;;;;;;;;;;;;;;;;5003466;28;19930;-68
2023/01/21 13:59:05;;;;;;;;;;;;;;;;;;5007697;28;19917;-68
2023/01/21 14:01:31;;;;;;;;;;;;;;;;;;5007977;28;19965;-68
2023/01/21 14:03:57;;;;;;;;;;;;;;;;;;4998372;28;19933;-67
2023/01/21 14:06:23;;;;;;;;;;;;;;;;;;5012608;28;20505;-68
2023/01/21 14:08:49;;;;;;;;;;;;;;;;;;5016880;28;19980;-68
2023/01/21 14:11:15;;;;;;;;;;;;;;;;;;5029759;28;19921;-67
2023/01/21 14:13:41;;;;;;;;;;;;;;;;;;5003996;28;20556;-67
2023/01/21 14:16:06;;;;;;;;;;;;;;;;;;4991850;28;20018;-67
2023/01/21 14:18:32;;;;;;;;;;;;;;;;;;5005702;28;20117;-68
2023/01/21 14:20:58;;;;;;;;;;;;;;;;;;4999428;28;20754;-67
2023/01/21 14:23:24;;;;;;;;;;;;;;;;;;5001155;28;19925;-68
2023/01/21 14:25:50;;;;;;;;;;;;;;;;;;5005809;28;19968;-67
2023/01/21 14:28:16;;;;;;;;;;;;;;;;;;5012409;28;20601;-68
2023/01/21 14:30:42;;;;;;;;;;;;;;;;;;5011077;28;20463;-68
2023/01/21 14:33:07;;;;;;;;;;;;;;;;;;5031736;28;19925;-67
2023/01/21 14:35:33;;;;;;;;;;;;;;;;;;5025156;28;19956;-68
2023/01/21 14:37:59;;;;;;;;;;;;;;;;;;5006989;28;19932;-67
2023/01/21 14:40:25;;;;;;;;;;;;;;;;;;5030909;28;20416;-68
2023/01/21 14:42:52;;;;;;;;;;;;;;;;;;5032192;28;19933;-67
2023/01/21 14:45:20;;;;;;;;;;;;;;;;;;5039053;28;19925;-68
2023/01/21 14:47:46;;;;;;;;;;;;;;;;;;4998844;28;20013;-68
2023/01/21 14:50:12;;;;;;;;;;;;;;;;;;5028435;28;20005;-67
2023/01/21 14:52:38;;;;;;;;;;;;;;;;;;5030460;28;20210;-68
2023/01/21 14:55:04;;;;;;;;;;;;;;;;;;5029715;28;19935;-68
2023/01/21 14:57:30;;;;;;;;;;;;;;;;;;5014808;28;19935;-68
2023/01/21 14:59:56;;;;;;;;;;;;;;;;;;5020110;28;20456;-68
2023/01/21 15:02:21;;;;;;;;;;;;;;;;;;5019718;28;19932;-68
2023/01/21 15:04:47;;;;;;;;;;;;;;;;;;5009428;28;19930;-68
2023/01/21 15:07:13;;;;;;;;;;;;;;;;;;4999812;28;19960;-67
2023/01/21 15:09:39;;;;;;;;;;;;;;;;;;5029789;28;20431;-68
2023/01/21 15:12:05;;;;;;;;;;;;;;;;;;5022330;28;20283;-68
2023/01/21 15:14:31;;;;;;;;;;;;;;;;;;5018365;28;19925;-67
2023/01/21 15:16:57;;;;;;;;;;;;;;;;;;5000319;28;19929;-67
2023/01/21 15:19:23;;;;;;;;;;;;;;;;;;5005696;28;19929;-67
2023/01/21 15:21:48;;;;;;;;;;;;;;;;;;5025470;28;20409;-67
2023/01/21 15:24:14;;;;;;;;;;;;;;;;;;5004876;28;19921;-67
2023/01/21 15:26:41;;;;;;;;;;;;;;;;;;5020128;28;20382;-67
2023/01/21 15:29:07;;;;;;;;;;;;;;;;;;5003142;28;19986;-67
2023/01/21 15:31:33;;;;;;;;;;;;;;;;;;5015231;28;20008;-67
2023/01/21 15:33:58;;;;;;;;;;;;;;;;;;5017219;28;19925;-67
2023/01/21 15:36:25;;;;;;;;;;;;;;;;;;5025752;28;19929;-67
2023/01/21 15:38:50;;;;;;;;;;;;;;;;;;5025915;28;20075;-67
2023/01/21 15:41:16;;;;;;;;;;;;;;;;;;5011478;28;20293;-67
2023/01/21 15:43:42;;;;;;;;;;;;;;;;;;5013080;28;20413;-67
2023/01/21 15:46:08;;;;;;;;;;;;;;;;;;5010742;28;19921;-67
2023/01/21 15:48:34;;;;;;;;;;;;;;;;;;5018136;28;19921;-67
2023/01/21 15:51:00;;;;;;;;;;;;;;;;;;5005330;28;19951;-67
2023/01/21 15:53:27;;;;;;;;;;;;;;;;;;5014827;28;20382;-67
2023/01/21 15:55:53;;;;;;;;;;;;;;;;;;5024060;28;19932;-67
2023/01/21 15:58:20;;;;;;;;;;;;;;;;;;5008799;28;20273;-67
2023/01/21 16:00:46;;;;;;;;;;;;;;;;;;5014852;28;19921;-67
2023/01/21 16:03:12;;;;;;;;;;;;;;;;;;5015339;28;20425;-67
2023/01/21 16:05:38;;;;;;;;;;;;;;;;;;5021982;28;19978;-67
2023/01/21 16:08:04;;;;;;;;;;;;;;;;;;5024350;28;19925;-67
2023/01/21 16:10:30;;;;;;;;;;;;;;;;;;5018271;28;20006;-67
2023/01/21 16:12:56;;;;;;;;;;;;;;;;;;5030819;28;19920;-67
2023/01/21 16:15:22;;;;;;;;;;;;;;;;;;5010117;28;19925;-66
2023/01/21 16:17:48;;;;;;;;;;;;;;;;;;5019342;28;19966;-67
2023/01/21 16:20:15;;;;;;;;;;;;;;;;;;5020260;28;20481;-67
2023/01/21 16:22:41;;;;;;;;;;;;;;;;;;4991058;28;19925;-67
2023/01/21 16:25:07;;;;;;;;;;;;;;;;;;5035976;28;19931;-67
2023/01/21 16:27:34;;;;;;;;;;;;;;;;;;5014081;28;19925;-67
2023/01/21 16:29:59;;;;;;;;;;;;;;;;;;5013990;28;20123;-67
2023/01/21 16:32:25;;;;;;;;;;;;;;;;;;5024277;28;19925;-67
2023/01/21 16:34:51;;;;;;;;;;;;;;;;;;5016063;28;19968;-67
2023/01/21 16:37:17;;;;;;;;;;;;;;;;;;5011495;28;19928;-67
2023/01/21 16:39:43;;;;;;;;;;;;;;;;;;5027198;28;19995;-67